sensor_id;sensor_type;location;lat;lon;timestamp;P1;durP1;ratioP1;P2;durP2;ratioP2
17214;SDS011;8723;51.502;6.918;2022-07-29T00:02:12;5.03;;;1.50;;
17214;SDS011;8723;51.502;6.918;2022-07-29T00:04:40;3.13;;;1.55;;
17214;SDS011;8723;51.502;6.918;2022-07-29T00:07:07;1.95;;;1.40;;
17214;SDS011;8723;51.502;6.918;2022-07-29T00:09:35;3.03;;;1.20;;
17214;SDS011;8723;51.502;6.918;2022-07-29T00:12:03;3.53;;;1.40;;
17214;SDS011;8723;51.502;6.918;2022-07-29T00:14:30;5.68;;;1.58;;
17214;SDS011;8723;51.502;6.918;2022-07-29T00:16:57;5.35;;;1.50;;
17214;SDS011;8723;51.502;6.918;2022-07-29T00:19:24;4.03;;;1.50;;
17214;SDS011;8723;51.502;6.918;2022-07-29T00:21:51;3.80;;;1.70;;
17214;SDS011;8723;51.502;6.918;2022-07-29T00:24:18;3.58;;;1.70;;
17214;SDS011;8723;51.502;6.918;2022-07-29T00:26:47;5.03;;;1.70;;
17214;SDS011;8723;51.502;6.918;2022-07-29T00:29:14;3.90;;;1.55;;
17214;SDS011;8723;51.502;6.918;2022-07-29T00:31:41;4.00;;;1.40;;
17214;SDS011;8723;51.502;6.918;2022-07-29T00:34:08;3.40;;;1.27;;
17214;SDS011;8723;51.502;6.918;2022-07-29T00:36:55;3.85;;;1.55;;
17214;SDS011;8723;51.502;6.918;2022-07-29T00:39:21;3.87;;;1.90;;
17214;SDS011;8723;51.502;6.918;2022-07-29T00:41:50;3.47;;;1.60;;
17214;SDS011;8723;51.502;6.918;2022-07-29T00:44:17;2.40;;;1.27;;
17214;SDS011;8723;51.502;6.918;2022-07-29T00:46:44;3.72;;;1.50;;
17214;SDS011;8723;51.502;6.918;2022-07-29T00:49:12;3.22;;;1.42;;
17214;SDS011;8723;51.502;6.918;2022-07-29T00:51:39;3.90;;;1.45;;
17214;SDS011;8723;51.502;6.918;2022-07-29T00:54:06;2.50;;;1.40;;
17214;SDS011;8723;51.502;6.918;2022-07-29T00:56:33;3.45;;;1.42;;
17214;SDS011;8723;51.502;6.918;2022-07-29T00:59:02;2.80;;;1.50;;
17214;SDS011;8723;51.502;6.918;2022-07-29T01:01:29;3.97;;;1.90;;
17214;SDS011;8723;51.502;6.918;2022-07-29T01:03:56;5.83;;;1.80;;
17214;SDS011;8723;51.502;6.918;2022-07-29T01:06:23;3.93;;;1.67;;
17214;SDS011;8723;51.502;6.918;2022-07-29T01:08:51;4.88;;;1.90;;
17214;SDS011;8723;51.502;6.918;2022-07-29T01:11:18;4.63;;;1.80;;
17214;SDS011;8723;51.502;6.918;2022-07-29T01:13:46;3.67;;;1.60;;
17214;SDS011;8723;51.502;6.918;2022-07-29T01:16:17;4.50;;;1.75;;
17214;SDS011;8723;51.502;6.918;2022-07-29T01:18:48;5.47;;;1.50;;
17214;SDS011;8723;51.502;6.918;2022-07-29T01:24:11;2.90;;;1.73;;
17214;SDS011;8723;51.502;6.918;2022-07-29T01:26:42;2.97;;;1.60;;
17214;SDS011;8723;51.502;6.918;2022-07-29T01:29:14;4.38;;;1.60;;
17214;SDS011;8723;51.502;6.918;2022-07-29T01:31:45;3.33;;;1.90;;
17214;SDS011;8723;51.502;6.918;2022-07-29T01:34:16;4.47;;;1.80;;
17214;SDS011;8723;51.502;6.918;2022-07-29T01:36:45;4.68;;;1.85;;
17214;SDS011;8723;51.502;6.918;2022-07-29T01:39:15;4.35;;;2.00;;
17214;SDS011;8723;51.502;6.918;2022-07-29T01:41:48;3.57;;;1.70;;
17214;SDS011;8723;51.502;6.918;2022-07-29T01:44:18;4.38;;;1.70;;
17214;SDS011;8723;51.502;6.918;2022-07-29T01:46:49;3.92;;;1.83;;
17214;SDS011;8723;51.502;6.918;2022-07-29T01:49:17;2.97;;;1.70;;
17214;SDS011;8723;51.502;6.918;2022-07-29T01:51:46;3.03;;;1.60;;
17214;SDS011;8723;51.502;6.918;2022-07-29T01:54:16;3.08;;;1.52;;
17214;SDS011;8723;51.502;6.918;2022-07-29T01:56:45;3.50;;;1.77;;
17214;SDS011;8723;51.502;6.918;2022-07-29T01:59:14;2.22;;;1.50;;
17214;SDS011;8723;51.502;6.918;2022-07-29T02:01:44;4.95;;;1.65;;
17214;SDS011;8723;51.502;6.918;2022-07-29T02:04:12;5.47;;;1.67;;
17214;SDS011;8723;51.502;6.918;2022-07-29T02:06:41;4.82;;;1.55;;
17214;SDS011;8723;51.502;6.918;2022-07-29T02:09:09;2.92;;;1.65;;
17214;SDS011;8723;51.502;6.918;2022-07-29T02:11:37;5.07;;;1.92;;
17214;SDS011;8723;51.502;6.918;2022-07-29T02:14:04;3.45;;;1.58;;
17214;SDS011;8723;51.502;6.918;2022-07-29T02:16:32;4.30;;;1.73;;
17214;SDS011;8723;51.502;6.918;2022-07-29T02:19:02;3.75;;;1.75;;
17214;SDS011;8723;51.502;6.918;2022-07-29T02:21:29;4.68;;;1.77;;
17214;SDS011;8723;51.502;6.918;2022-07-29T02:23:59;3.00;;;1.60;;
17214;SDS011;8723;51.502;6.918;2022-07-29T02:26:27;3.45;;;1.90;;
17214;SDS011;8723;51.502;6.918;2022-07-29T02:28:56;3.70;;;1.92;;
17214;SDS011;8723;51.502;6.918;2022-07-29T02:31:25;4.30;;;1.90;;
17214;SDS011;8723;51.502;6.918;2022-07-29T02:33:52;4.97;;;2.00;;
17214;SDS011;8723;51.502;6.918;2022-07-29T02:36:22;4.55;;;1.80;;
17214;SDS011;8723;51.502;6.918;2022-07-29T02:38:50;2.95;;;1.60;;
17214;SDS011;8723;51.502;6.918;2022-07-29T02:41:19;4.57;;;1.65;;
17214;SDS011;8723;51.502;6.918;2022-07-29T02:43:47;4.90;;;1.75;;
17214;SDS011;8723;51.502;6.918;2022-07-29T02:46:16;3.35;;;1.45;;
17214;SDS011;8723;51.502;6.918;2022-07-29T02:48:47;3.53;;;1.63;;
17214;SDS011;8723;51.502;6.918;2022-07-29T02:51:17;3.15;;;1.65;;
17214;SDS011;8723;51.502;6.918;2022-07-29T02:53:46;4.53;;;1.42;;
17214;SDS011;8723;51.502;6.918;2022-07-29T02:56:16;3.45;;;1.50;;
17214;SDS011;8723;51.502;6.918;2022-07-29T02:58:45;3.00;;;1.52;;
17214;SDS011;8723;51.502;6.918;2022-07-29T03:01:14;3.25;;;1.45;;
17214;SDS011;8723;51.502;6.918;2022-07-29T03:03:45;3.35;;;1.65;;
17214;SDS011;8723;51.502;6.918;2022-07-29T03:06:13;2.93;;;1.40;;
17214;SDS011;8723;51.502;6.918;2022-07-29T03:08:41;3.60;;;1.70;;
17214;SDS011;8723;51.502;6.918;2022-07-29T03:11:10;3.30;;;1.50;;
17214;SDS011;8723;51.502;6.918;2022-07-29T03:13:38;4.05;;;1.60;;
17214;SDS011;8723;51.502;6.918;2022-07-29T03:16:05;1.52;;;1.30;;
17214;SDS011;8723;51.502;6.918;2022-07-29T03:18:33;3.33;;;1.40;;
17214;SDS011;8723;51.502;6.918;2022-07-29T03:21:01;3.58;;;1.38;;
17214;SDS011;8723;51.502;6.918;2022-07-29T03:23:29;2.30;;;1.38;;
17214;SDS011;8723;51.502;6.918;2022-07-29T03:25:56;2.75;;;1.40;;
17214;SDS011;8723;51.502;6.918;2022-07-29T03:28:25;2.58;;;1.50;;
17214;SDS011;8723;51.502;6.918;2022-07-29T03:30:52;3.90;;;1.63;;
17214;SDS011;8723;51.502;6.918;2022-07-29T03:33:20;2.33;;;1.20;;
17214;SDS011;8723;51.502;6.918;2022-07-29T03:35:47;1.90;;;1.23;;
17214;SDS011;8723;51.502;6.918;2022-07-29T03:38:14;3.07;;;1.33;;
17214;SDS011;8723;51.502;6.918;2022-07-29T03:40:42;4.53;;;1.70;;
17214;SDS011;8723;51.502;6.918;2022-07-29T03:43:11;4.28;;;1.58;;
17214;SDS011;8723;51.502;6.918;2022-07-29T03:45:41;2.63;;;1.40;;
17214;SDS011;8723;51.502;6.918;2022-07-29T03:48:10;4.03;;;1.77;;
17214;SDS011;8723;51.502;6.918;2022-07-29T03:50:39;2.97;;;1.38;;
17214;SDS011;8723;51.502;6.918;2022-07-29T03:53:06;4.43;;;1.30;;
17214;SDS011;8723;51.502;6.918;2022-07-29T03:55:36;5.82;;;1.63;;
17214;SDS011;8723;51.502;6.918;2022-07-29T03:58:04;4.80;;;1.70;;
17214;SDS011;8723;51.502;6.918;2022-07-29T04:00:31;4.88;;;1.58;;
17214;SDS011;8723;51.502;6.918;2022-07-29T04:03:00;1.73;;;1.38;;
17214;SDS011;8723;51.502;6.918;2022-07-29T04:05:28;3.15;;;1.38;;
17214;SDS011;8723;51.502;6.918;2022-07-29T04:07:55;1.67;;;1.35;;
17214;SDS011;8723;51.502;6.918;2022-07-29T04:10:22;5.00;;;1.73;;
17214;SDS011;8723;51.502;6.918;2022-07-29T04:12:49;1.30;;;1.20;;
17214;SDS011;8723;51.502;6.918;2022-07-29T04:15:17;2.60;;;1.67;;
17214;SDS011;8723;51.502;6.918;2022-07-29T04:17:44;2.03;;;1.40;;
17214;SDS011;8723;51.502;6.918;2022-07-29T04:20:13;3.30;;;1.40;;
17214;SDS011;8723;51.502;6.918;2022-07-29T04:22:40;3.03;;;1.52;;
17214;SDS011;8723;51.502;6.918;2022-07-29T04:25:07;2.22;;;1.50;;
17214;SDS011;8723;51.502;6.918;2022-07-29T04:27:35;3.72;;;1.50;;
17214;SDS011;8723;51.502;6.918;2022-07-29T04:30:22;2.55;;;1.60;;
17214;SDS011;8723;51.502;6.918;2022-07-29T04:32:49;3.17;;;1.60;;
17214;SDS011;8723;51.502;6.918;2022-07-29T04:35:18;3.17;;;1.50;;
17214;SDS011;8723;51.502;6.918;2022-07-29T04:37:45;2.42;;;1.52;;
17214;SDS011;8723;51.502;6.918;2022-07-29T04:40:12;5.88;;;1.63;;
17214;SDS011;8723;51.502;6.918;2022-07-29T04:42:39;2.53;;;1.83;;
17214;SDS011;8723;51.502;6.918;2022-07-29T04:45:07;2.80;;;1.60;;
17214;SDS011;8723;51.502;6.918;2022-07-29T04:47:34;2.60;;;1.50;;
17214;SDS011;8723;51.502;6.918;2022-07-29T04:50:01;2.22;;;1.60;;
17214;SDS011;8723;51.502;6.918;2022-07-29T04:52:31;3.05;;;1.70;;
17214;SDS011;8723;51.502;6.918;2022-07-29T04:54:59;4.82;;;1.60;;
17214;SDS011;8723;51.502;6.918;2022-07-29T04:57:26;3.80;;;1.80;;
17214;SDS011;8723;51.502;6.918;2022-07-29T04:59:54;2.47;;;1.73;;
17214;SDS011;8723;51.502;6.918;2022-07-29T05:02:21;3.10;;;1.80;;
17214;SDS011;8723;51.502;6.918;2022-07-29T05:04:48;4.28;;;1.98;;
17214;SDS011;8723;51.502;6.918;2022-07-29T05:07:15;3.03;;;1.52;;
17214;SDS011;8723;51.502;6.918;2022-07-29T05:09:43;4.40;;;1.95;;
17214;SDS011;8723;51.502;6.918;2022-07-29T05:12:11;4.13;;;2.10;;
17214;SDS011;8723;51.502;6.918;2022-07-29T05:14:38;4.13;;;2.10;;
17214;SDS011;8723;51.502;6.918;2022-07-29T05:17:05;3.78;;;1.90;;
17214;SDS011;8723;51.502;6.918;2022-07-29T05:19:32;3.67;;;2.00;;
17214;SDS011;8723;51.502;6.918;2022-07-29T05:22:00;4.47;;;1.73;;
17214;SDS011;8723;51.502;6.918;2022-07-29T05:24:27;5.03;;;2.30;;
17214;SDS011;8723;51.502;6.918;2022-07-29T05:26:55;3.88;;;2.10;;
17214;SDS011;8723;51.502;6.918;2022-07-29T05:29:23;4.45;;;1.90;;
17214;SDS011;8723;51.502;6.918;2022-07-29T05:31:50;2.45;;;1.60;;
17214;SDS011;8723;51.502;6.918;2022-07-29T05:34:18;6.00;;;1.90;;
17214;SDS011;8723;51.502;6.918;2022-07-29T05:36:45;4.68;;;2.03;;
17214;SDS011;8723;51.502;6.918;2022-07-29T05:39:12;3.88;;;1.88;;
17214;SDS011;8723;51.502;6.918;2022-07-29T05:41:39;5.05;;;1.90;;
17214;SDS011;8723;51.502;6.918;2022-07-29T05:44:07;4.95;;;2.13;;
17214;SDS011;8723;51.502;6.918;2022-07-29T05:46:35;4.97;;;2.28;;
17214;SDS011;8723;51.502;6.918;2022-07-29T05:49:02;4.23;;;2.00;;
17214;SDS011;8723;51.502;6.918;2022-07-29T05:51:29;3.63;;;2.23;;
17214;SDS011;8723;51.502;6.918;2022-07-29T05:53:56;3.28;;;1.98;;
17214;SDS011;8723;51.502;6.918;2022-07-29T05:56:23;3.45;;;2.10;;
17214;SDS011;8723;51.502;6.918;2022-07-29T05:58:50;5.45;;;2.40;;
17214;SDS011;8723;51.502;6.918;2022-07-29T06:01:19;4.65;;;2.70;;
17214;SDS011;8723;51.502;6.918;2022-07-29T06:03:46;3.38;;;2.30;;
17214;SDS011;8723;51.502;6.918;2022-07-29T06:06:13;4.03;;;2.35;;
17214;SDS011;8723;51.502;6.918;2022-07-29T06:08:40;3.83;;;2.60;;
17214;SDS011;8723;51.502;6.918;2022-07-29T06:11:07;3.65;;;2.67;;
17214;SDS011;8723;51.502;6.918;2022-07-29T06:13:35;5.20;;;2.85;;
17214;SDS011;8723;51.502;6.918;2022-07-29T06:16:02;5.38;;;2.90;;
17214;SDS011;8723;51.502;6.918;2022-07-29T06:18:30;6.13;;;3.13;;
17214;SDS011;8723;51.502;6.918;2022-07-29T06:20:58;7.88;;;2.95;;
17214;SDS011;8723;51.502;6.918;2022-07-29T06:23:25;4.40;;;2.70;;
17214;SDS011;8723;51.502;6.918;2022-07-29T06:25:52;4.53;;;2.85;;
17214;SDS011;8723;51.502;6.918;2022-07-29T06:28:19;6.15;;;3.10;;
17214;SDS011;8723;51.502;6.918;2022-07-29T06:30:46;5.55;;;3.10;;
17214;SDS011;8723;51.502;6.918;2022-07-29T06:33:17;6.23;;;3.33;;
17214;SDS011;8723;51.502;6.918;2022-07-29T06:35:45;5.25;;;2.85;;
17214;SDS011;8723;51.502;6.918;2022-07-29T06:38:14;4.60;;;2.90;;
17214;SDS011;8723;51.502;6.918;2022-07-29T06:40:41;3.63;;;2.95;;
17214;SDS011;8723;51.502;6.918;2022-07-29T06:43:27;6.20;;;2.90;;
17214;SDS011;8723;51.502;6.918;2022-07-29T06:45:56;8.57;;;4.55;;
17214;SDS011;8723;51.502;6.918;2022-07-29T06:48:23;3.70;;;3.10;;
17214;SDS011;8723;51.502;6.918;2022-07-29T06:50:52;5.00;;;3.10;;
17214;SDS011;8723;51.502;6.918;2022-07-29T06:53:19;5.53;;;3.30;;
17214;SDS011;8723;51.502;6.918;2022-07-29T06:55:47;4.10;;;3.10;;
17214;SDS011;8723;51.502;6.918;2022-07-29T06:58:14;4.97;;;3.33;;
17214;SDS011;8723;51.502;6.918;2022-07-29T07:00:43;5.93;;;2.95;;
17214;SDS011;8723;51.502;6.918;2022-07-29T07:03:10;4.18;;;3.50;;
17214;SDS011;8723;51.502;6.918;2022-07-29T07:05:37;5.45;;;3.42;;
17214;SDS011;8723;51.502;6.918;2022-07-29T07:08:06;5.80;;;3.80;;
17214;SDS011;8723;51.502;6.918;2022-07-29T07:10:33;8.20;;;3.92;;
17214;SDS011;8723;51.502;6.918;2022-07-29T07:13:02;6.10;;;3.90;;
17214;SDS011;8723;51.502;6.918;2022-07-29T07:15:29;7.82;;;3.83;;
17214;SDS011;8723;51.502;6.918;2022-07-29T07:17:57;5.63;;;3.42;;
17214;SDS011;8723;51.502;6.918;2022-07-29T07:20:24;9.73;;;3.70;;
17214;SDS011;8723;51.502;6.918;2022-07-29T07:22:51;7.03;;;3.78;;
17214;SDS011;8723;51.502;6.918;2022-07-29T07:25:19;5.90;;;3.38;;
17214;SDS011;8723;51.502;6.918;2022-07-29T07:27:46;7.18;;;3.95;;
17214;SDS011;8723;51.502;6.918;2022-07-29T07:30:14;4.55;;;3.35;;
17214;SDS011;8723;51.502;6.918;2022-07-29T07:32:41;4.63;;;3.42;;
17214;SDS011;8723;51.502;6.918;2022-07-29T07:35:09;7.50;;;3.65;;
17214;SDS011;8723;51.502;6.918;2022-07-29T07:37:36;5.38;;;3.10;;
17214;SDS011;8723;51.502;6.918;2022-07-29T07:40:05;5.63;;;2.93;;
17214;SDS011;8723;51.502;6.918;2022-07-29T07:42:34;7.07;;;3.45;;
17214;SDS011;8723;51.502;6.918;2022-07-29T07:45:01;5.20;;;3.20;;
17214;SDS011;8723;51.502;6.918;2022-07-29T07:47:29;5.18;;;3.20;;
17214;SDS011;8723;51.502;6.918;2022-07-29T07:49:56;5.78;;;3.17;;
17214;SDS011;8723;51.502;6.918;2022-07-29T07:52:25;4.88;;;3.13;;
17214;SDS011;8723;51.502;6.918;2022-07-29T07:54:52;5.30;;;2.88;;
17214;SDS011;8723;51.502;6.918;2022-07-29T07:57:19;5.18;;;3.63;;
17214;SDS011;8723;51.502;6.918;2022-07-29T07:59:47;5.20;;;3.03;;
17214;SDS011;8723;51.502;6.918;2022-07-29T08:02:15;4.75;;;3.00;;
17214;SDS011;8723;51.502;6.918;2022-07-29T08:04:42;4.97;;;3.33;;
17214;SDS011;8723;51.502;6.918;2022-07-29T08:07:09;4.90;;;3.17;;
17214;SDS011;8723;51.502;6.918;2022-07-29T08:09:36;7.63;;;3.78;;
17214;SDS011;8723;51.502;6.918;2022-07-29T08:12:03;8.05;;;3.20;;
17214;SDS011;8723;51.502;6.918;2022-07-29T08:14:31;6.47;;;3.20;;
17214;SDS011;8723;51.502;6.918;2022-07-29T08:17:00;4.18;;;3.20;;
17214;SDS011;8723;51.502;6.918;2022-07-29T08:19:27;4.55;;;3.28;;
17214;SDS011;8723;51.502;6.918;2022-07-29T08:21:54;4.47;;;3.10;;
17214;SDS011;8723;51.502;6.918;2022-07-29T08:24:21;6.47;;;3.37;;
17214;SDS011;8723;51.502;6.918;2022-07-29T08:27:06;7.25;;;3.60;;
17214;SDS011;8723;51.502;6.918;2022-07-29T08:29:33;5.53;;;3.13;;
17214;SDS011;8723;51.502;6.918;2022-07-29T08:32:02;5.57;;;3.63;;
17214;SDS011;8723;51.502;6.918;2022-07-29T08:34:29;5.95;;;3.30;;
17214;SDS011;8723;51.502;6.918;2022-07-29T08:36:57;6.13;;;3.65;;
17214;SDS011;8723;51.502;6.918;2022-07-29T08:39:24;5.28;;;3.42;;
17214;SDS011;8723;51.502;6.918;2022-07-29T08:41:51;7.00;;;3.80;;
17214;SDS011;8723;51.502;6.918;2022-07-29T08:44:20;5.30;;;4.05;;
17214;SDS011;8723;51.502;6.918;2022-07-29T08:46:47;6.20;;;4.10;;
17214;SDS011;8723;51.502;6.918;2022-07-29T08:49:16;7.55;;;4.30;;
17214;SDS011;8723;51.502;6.918;2022-07-29T08:51:44;6.32;;;4.15;;
17214;SDS011;8723;51.502;6.918;2022-07-29T08:54:11;9.13;;;4.47;;
17214;SDS011;8723;51.502;6.918;2022-07-29T08:56:43;6.73;;;4.43;;
17214;SDS011;8723;51.502;6.918;2022-07-29T08:59:10;7.67;;;4.63;;
17214;SDS011;8723;51.502;6.918;2022-07-29T09:01:38;6.50;;;4.18;;
17214;SDS011;8723;51.502;6.918;2022-07-29T09:04:08;8.60;;;5.05;;
17214;SDS011;8723;51.502;6.918;2022-07-29T09:06:39;7.03;;;5.20;;
17214;SDS011;8723;51.502;6.918;2022-07-29T09:09:07;7.25;;;5.00;;
17214;SDS011;8723;51.502;6.918;2022-07-29T09:11:34;5.85;;;4.95;;
17214;SDS011;8723;51.502;6.918;2022-07-29T09:14:01;6.50;;;5.22;;
17214;SDS011;8723;51.502;6.918;2022-07-29T09:16:43;9.07;;;4.65;;
17214;SDS011;8723;51.502;6.918;2022-07-29T09:19:15;7.82;;;5.40;;
17214;SDS011;8723;51.502;6.918;2022-07-29T09:21:47;9.02;;;5.35;;
17214;SDS011;8723;51.502;6.918;2022-07-29T09:24:27;9.38;;;5.78;;
17214;SDS011;8723;51.502;6.918;2022-07-29T09:27:04;7.03;;;5.30;;
17214;SDS011;8723;51.502;6.918;2022-07-29T09:29:34;8.00;;;5.20;;
17214;SDS011;8723;51.502;6.918;2022-07-29T09:32:01;7.50;;;5.30;;
17214;SDS011;8723;51.502;6.918;2022-07-29T09:34:32;8.13;;;5.03;;
17214;SDS011;8723;51.502;6.918;2022-07-29T09:37:00;6.40;;;4.50;;
17214;SDS011;8723;51.502;6.918;2022-07-29T09:39:28;6.75;;;4.68;;
17214;SDS011;8723;51.502;6.918;2022-07-29T09:41:56;7.37;;;4.97;;
17214;SDS011;8723;51.502;6.918;2022-07-29T09:44:23;6.55;;;4.47;;
17214;SDS011;8723;51.502;6.918;2022-07-29T09:46:57;7.63;;;4.20;;
17214;SDS011;8723;51.502;6.918;2022-07-29T09:49:31;6.65;;;4.30;;
17214;SDS011;8723;51.502;6.918;2022-07-29T09:52:00;7.95;;;4.82;;
17214;SDS011;8723;51.502;6.918;2022-07-29T09:54:27;5.68;;;4.38;;
17214;SDS011;8723;51.502;6.918;2022-07-29T09:56:59;5.28;;;4.22;;
17214;SDS011;8723;51.502;6.918;2022-07-29T09:59:26;6.25;;;4.40;;
17214;SDS011;8723;51.502;6.918;2022-07-29T10:01:53;5.70;;;4.35;;
17214;SDS011;8723;51.502;6.918;2022-07-29T10:04:20;6.85;;;4.10;;
17214;SDS011;8723;51.502;6.918;2022-07-29T10:06:57;6.28;;;4.00;;
17214;SDS011;8723;51.502;6.918;2022-07-29T10:09:26;5.70;;;4.05;;
17214;SDS011;8723;51.502;6.918;2022-07-29T10:12:07;8.00;;;4.43;;
17214;SDS011;8723;51.502;6.918;2022-07-29T10:14:36;6.35;;;4.57;;
17214;SDS011;8723;51.502;6.918;2022-07-29T10:17:03;7.72;;;4.95;;
17214;SDS011;8723;51.502;6.918;2022-07-29T10:19:31;7.00;;;4.77;;
17214;SDS011;8723;51.502;6.918;2022-07-29T10:22:02;5.32;;;4.68;;
17214;SDS011;8723;51.502;6.918;2022-07-29T10:24:31;6.53;;;4.90;;
17214;SDS011;8723;51.502;6.918;2022-07-29T10:26:59;7.03;;;5.00;;
17214;SDS011;8723;51.502;6.918;2022-07-29T10:29:27;6.80;;;5.63;;
17214;SDS011;8723;51.502;6.918;2022-07-29T10:32:00;7.32;;;5.65;;
17214;SDS011;8723;51.502;6.918;2022-07-29T10:34:33;7.82;;;6.53;;
17214;SDS011;8723;51.502;6.918;2022-07-29T10:37:03;9.83;;;6.57;;
17214;SDS011;8723;51.502;6.918;2022-07-29T10:39:39;8.33;;;6.53;;
17214;SDS011;8723;51.502;6.918;2022-07-29T10:42:11;7.90;;;6.50;;
17214;SDS011;8723;51.502;6.918;2022-07-29T10:44:40;9.73;;;7.38;;
17214;SDS011;8723;51.502;6.918;2022-07-29T10:47:11;7.45;;;6.60;;
17214;SDS011;8723;51.502;6.918;2022-07-29T10:49:54;6.63;;;6.03;;
17214;SDS011;8723;51.502;6.918;2022-07-29T10:52:22;7.90;;;5.90;;
17214;SDS011;8723;51.502;6.918;2022-07-29T10:54:54;4.10;;;3.70;;
17214;SDS011;8723;51.502;6.918;2022-07-29T10:57:24;7.60;;;5.18;;
17214;SDS011;8723;51.502;6.918;2022-07-29T11:02:44;5.82;;;4.22;;
17214;SDS011;8723;51.502;6.918;2022-07-29T11:05:17;7.22;;;3.67;;
17214;SDS011;8723;51.502;6.918;2022-07-29T11:10:31;5.28;;;3.15;;
17214;SDS011;8723;51.502;6.918;2022-07-29T11:12:58;7.23;;;3.90;;
17214;SDS011;8723;51.502;6.918;2022-07-29T11:15:26;6.53;;;3.70;;
17214;SDS011;8723;51.502;6.918;2022-07-29T11:18:05;4.43;;;3.70;;
17214;SDS011;8723;51.502;6.918;2022-07-29T11:20:36;3.97;;;2.70;;
17214;SDS011;8723;51.502;6.918;2022-07-29T11:23:20;6.50;;;3.57;;
17214;SDS011;8723;51.502;6.918;2022-07-29T11:28:36;4.90;;;3.38;;
17214;SDS011;8723;51.502;6.918;2022-07-29T11:31:06;4.73;;;4.00;;
17214;SDS011;8723;51.502;6.918;2022-07-29T11:33:34;6.15;;;3.90;;
17214;SDS011;8723;51.502;6.918;2022-07-29T11:36:08;7.15;;;3.40;;
17214;SDS011;8723;51.502;6.918;2022-07-29T11:38:36;3.97;;;3.50;;
17214;SDS011;8723;51.502;6.918;2022-07-29T11:41:19;3.60;;;2.92;;
17214;SDS011;8723;51.502;6.918;2022-07-29T11:43:48;3.40;;;2.75;;
17214;SDS011;8723;51.502;6.918;2022-07-29T11:46:16;5.10;;;3.55;;
17214;SDS011;8723;51.502;6.918;2022-07-29T11:48:44;5.95;;;3.67;;
17214;SDS011;8723;51.502;6.918;2022-07-29T11:51:11;4.57;;;3.60;;
17214;SDS011;8723;51.502;6.918;2022-07-29T11:53:38;6.15;;;4.15;;
17214;SDS011;8723;51.502;6.918;2022-07-29T11:56:07;6.28;;;3.38;;
17214;SDS011;8723;51.502;6.918;2022-07-29T11:58:35;5.18;;;3.38;;
17214;SDS011;8723;51.502;6.918;2022-07-29T12:01:03;4.60;;;3.55;;
17214;SDS011;8723;51.502;6.918;2022-07-29T12:03:31;4.60;;;3.22;;
17214;SDS011;8723;51.502;6.918;2022-07-29T12:05:59;4.88;;;3.60;;
17214;SDS011;8723;51.502;6.918;2022-07-29T12:08:26;5.90;;;3.78;;
17214;SDS011;8723;51.502;6.918;2022-07-29T12:10:54;4.50;;;3.53;;
17214;SDS011;8723;51.502;6.918;2022-07-29T12:13:21;4.38;;;2.97;;
17214;SDS011;8723;51.502;6.918;2022-07-29T12:15:52;4.28;;;2.75;;
17214;SDS011;8723;51.502;6.918;2022-07-29T12:18:21;4.80;;;2.80;;
17214;SDS011;8723;51.502;6.918;2022-07-29T12:20:48;4.00;;;2.65;;
17214;SDS011;8723;51.502;6.918;2022-07-29T12:23:22;4.43;;;3.20;;
17214;SDS011;8723;51.502;6.918;2022-07-29T12:25:50;5.90;;;3.00;;
17214;SDS011;8723;51.502;6.918;2022-07-29T12:28:17;4.80;;;3.63;;
17214;SDS011;8723;51.502;6.918;2022-07-29T12:30:47;4.97;;;3.88;;
17214;SDS011;8723;51.502;6.918;2022-07-29T12:33:18;4.88;;;3.40;;
17214;SDS011;8723;51.502;6.918;2022-07-29T12:35:48;2.58;;;2.20;;
17214;SDS011;8723;51.502;6.918;2022-07-29T12:38:16;4.07;;;3.42;;
17214;SDS011;8723;51.502;6.918;2022-07-29T12:40:44;4.53;;;2.90;;
17214;SDS011;8723;51.502;6.918;2022-07-29T12:43:12;2.33;;;1.75;;
17214;SDS011;8723;51.502;6.918;2022-07-29T12:45:41;5.13;;;2.70;;
17214;SDS011;8723;51.502;6.918;2022-07-29T12:48:08;5.70;;;3.17;;
17214;SDS011;8723;51.502;6.918;2022-07-29T12:50:36;4.93;;;2.90;;
17214;SDS011;8723;51.502;6.918;2022-07-29T12:53:11;3.50;;;2.40;;
17214;SDS011;8723;51.502;6.918;2022-07-29T12:55:39;3.58;;;2.55;;
17214;SDS011;8723;51.502;6.918;2022-07-29T12:58:06;3.90;;;2.67;;
17214;SDS011;8723;51.502;6.918;2022-07-29T13:00:33;5.60;;;3.30;;
17214;SDS011;8723;51.502;6.918;2022-07-29T13:03:01;4.80;;;3.10;;
17214;SDS011;8723;51.502;6.918;2022-07-29T13:05:41;3.38;;;2.45;;
17214;SDS011;8723;51.502;6.918;2022-07-29T13:08:13;3.53;;;2.20;;
17214;SDS011;8723;51.502;6.918;2022-07-29T13:10:40;3.47;;;3.03;;
17214;SDS011;8723;51.502;6.918;2022-07-29T13:13:08;4.35;;;3.05;;
17214;SDS011;8723;51.502;6.918;2022-07-29T13:15:36;3.30;;;2.45;;
17214;SDS011;8723;51.502;6.918;2022-07-29T13:18:04;3.90;;;2.42;;
17214;SDS011;8723;51.502;6.918;2022-07-29T13:20:31;4.72;;;2.15;;
17214;SDS011;8723;51.502;6.918;2022-07-29T13:22:59;4.43;;;2.90;;
17214;SDS011;8723;51.502;6.918;2022-07-29T13:25:28;2.30;;;2.10;;
17214;SDS011;8723;51.502;6.918;2022-07-29T13:27:56;3.73;;;2.43;;
17214;SDS011;8723;51.502;6.918;2022-07-29T13:30:24;3.75;;;2.83;;
17214;SDS011;8723;51.502;6.918;2022-07-29T13:32:52;4.55;;;2.78;;
17214;SDS011;8723;51.502;6.918;2022-07-29T13:35:20;4.72;;;2.95;;
17214;SDS011;8723;51.502;6.918;2022-07-29T13:37:47;2.83;;;2.55;;
17214;SDS011;8723;51.502;6.918;2022-07-29T13:40:14;3.25;;;2.83;;
17214;SDS011;8723;51.502;6.918;2022-07-29T13:42:43;4.13;;;2.58;;
17214;SDS011;8723;51.502;6.918;2022-07-29T13:45:10;4.38;;;2.83;;
17214;SDS011;8723;51.502;6.918;2022-07-29T13:47:38;5.38;;;2.90;;
17214;SDS011;8723;51.502;6.918;2022-07-29T13:50:05;4.40;;;3.03;;
17214;SDS011;8723;51.502;6.918;2022-07-29T13:52:34;4.20;;;2.90;;
17214;SDS011;8723;51.502;6.918;2022-07-29T13:55:06;4.10;;;2.90;;
17214;SDS011;8723;51.502;6.918;2022-07-29T13:57:33;4.90;;;3.13;;
17214;SDS011;8723;51.502;6.918;2022-07-29T14:00:02;3.60;;;2.53;;
17214;SDS011;8723;51.502;6.918;2022-07-29T14:02:29;4.15;;;3.00;;
17214;SDS011;8723;51.502;6.918;2022-07-29T14:04:58;3.58;;;2.35;;
17214;SDS011;8723;51.502;6.918;2022-07-29T14:07:25;3.25;;;2.40;;
17214;SDS011;8723;51.502;6.918;2022-07-29T14:09:52;3.05;;;2.60;;
17214;SDS011;8723;51.502;6.918;2022-07-29T14:12:19;5.55;;;2.45;;
17214;SDS011;8723;51.502;6.918;2022-07-29T14:14:47;3.33;;;2.42;;
17214;SDS011;8723;51.502;6.918;2022-07-29T14:17:16;3.47;;;2.78;;
17214;SDS011;8723;51.502;6.918;2022-07-29T14:19:43;3.47;;;3.10;;
17214;SDS011;8723;51.502;6.918;2022-07-29T14:22:10;5.28;;;3.35;;
17214;SDS011;8723;51.502;6.918;2022-07-29T14:24:37;6.15;;;3.00;;
17214;SDS011;8723;51.502;6.918;2022-07-29T14:27:05;6.13;;;3.15;;
17214;SDS011;8723;51.502;6.918;2022-07-29T14:29:33;3.28;;;2.83;;
17214;SDS011;8723;51.502;6.918;2022-07-29T14:32:00;6.67;;;3.47;;
17214;SDS011;8723;51.502;6.918;2022-07-29T14:34:29;5.47;;;3.58;;
17214;SDS011;8723;51.502;6.918;2022-07-29T14:36:56;5.30;;;3.20;;
17214;SDS011;8723;51.502;6.918;2022-07-29T14:39:27;4.70;;;3.20;;
17214;SDS011;8723;51.502;6.918;2022-07-29T14:41:55;5.47;;;3.42;;
17214;SDS011;8723;51.502;6.918;2022-07-29T14:44:22;5.53;;;3.92;;
17214;SDS011;8723;51.502;6.918;2022-07-29T14:46:54;4.38;;;3.53;;
17214;SDS011;8723;51.502;6.918;2022-07-29T14:49:21;6.72;;;4.03;;
17214;SDS011;8723;51.502;6.918;2022-07-29T14:51:49;5.18;;;3.35;;
17214;SDS011;8723;51.502;6.918;2022-07-29T14:54:16;5.80;;;4.00;;
17214;SDS011;8723;51.502;6.918;2022-07-29T14:56:44;5.45;;;4.03;;
17214;SDS011;8723;51.502;6.918;2022-07-29T14:59:11;6.07;;;3.78;;
17214;SDS011;8723;51.502;6.918;2022-07-29T15:01:38;5.13;;;3.60;;
17214;SDS011;8723;51.502;6.918;2022-07-29T15:04:05;5.70;;;4.07;;
17214;SDS011;8723;51.502;6.918;2022-07-29T15:06:33;4.78;;;3.78;;
17214;SDS011;8723;51.502;6.918;2022-07-29T15:09:02;6.45;;;4.00;;
17214;SDS011;8723;51.502;6.918;2022-07-29T15:11:30;4.50;;;3.25;;
17214;SDS011;8723;51.502;6.918;2022-07-29T15:13:57;5.07;;;3.28;;
17214;SDS011;8723;51.502;6.918;2022-07-29T15:16:24;7.78;;;3.80;;
17214;SDS011;8723;51.502;6.918;2022-07-29T15:18:51;8.02;;;4.22;;
17214;SDS011;8723;51.502;6.918;2022-07-29T15:21:20;5.38;;;3.13;;